sensor_id;sensor_type;location;lat;lon;timestamp;temperature;humidity
75262;DHT22;63859;51.064;4.580;2024-03-29T00:00:42;10.10;99.90
75262;DHT22;63859;51.064;4.580;2024-03-29T00:03:10;10.10;99.90
75262;DHT22;63859;51.064;4.580;2024-03-29T00:08:03;10.10;99.90
75262;DHT22;63859;51.064;4.580;2024-03-29T00:10:29;10.10;99.90
75262;DHT22;63859;51.064;4.580;2024-03-29T00:12:54;10.10;99.90
75262;DHT22;63859;51.064;4.580;2024-03-29T00:15:20;10.10;99.90
75262;DHT22;63859;51.064;4.580;2024-03-29T00:17:46;10.10;99.90
75262;DHT22;63859;51.064;4.580;2024-03-29T00:20:12;10.10;99.90
75262;DHT22;63859;51.064;4.580;2024-03-29T00:22:37;10.10;99.90
75262;DHT22;63859;51.064;4.580;2024-03-29T00:25:03;10.10;99.90
75262;DHT22;63859;51.064;4.580;2024-03-29T00:32:22;10.00;99.90
75262;DHT22;63859;51.064;4.580;2024-03-29T00:37:16;9.90;99.90
75262;DHT22;63859;51.064;4.580;2024-03-29T00:39:42;9.90;99.90
75262;DHT22;63859;51.064;4.580;2024-03-29T00:42:08;9.90;99.90
75262;DHT22;63859;51.064;4.580;2024-03-29T00:44:35;9.90;99.90
75262;DHT22;63859;51.064;4.580;2024-03-29T00:47:04;9.90;99.90
75262;DHT22;63859;51.064;4.580;2024-03-29T00:49:29;9.80;99.90
75262;DHT22;63859;51.064;4.580;2024-03-29T00:54:21;9.80;99.90
75262;DHT22;63859;51.064;4.580;2024-03-29T00:56:49;9.80;99.90
75262;DHT22;63859;51.064;4.580;2024-03-29T00:59:15;9.70;99.90
75262;DHT22;63859;51.064;4.580;2024-03-29T01:01:41;9.80;99.90
75262;DHT22;63859;51.064;4.580;2024-03-29T01:04:07;9.80;99.90
75262;DHT22;63859;51.064;4.580;2024-03-29T01:06:32;9.80;99.90
75262;DHT22;63859;51.064;4.580;2024-03-29T01:08:59;9.80;99.90
75262;DHT22;63859;51.064;4.580;2024-03-29T01:11:25;9.80;99.90
75262;DHT22;63859;51.064;4.580;2024-03-29T01:13:51;9.80;99.90
75262;DHT22;63859;51.064;4.580;2024-03-29T01:16:17;9.80;99.90
75262;DHT22;63859;51.064;4.580;2024-03-29T01:18:43;9.80;99.90
75262;DHT22;63859;51.064;4.580;2024-03-29T01:21:09;9.90;99.90
75262;DHT22;63859;51.064;4.580;2024-03-29T01:23:35;9.80;99.90
75262;DHT22;63859;51.064;4.580;2024-03-29T01:26:01;9.90;99.90
75262;DHT22;63859;51.064;4.580;2024-03-29T01:28:27;9.90;99.90
75262;DHT22;63859;51.064;4.580;2024-03-29T01:30:53;10.00;99.90
75262;DHT22;63859;51.064;4.580;2024-03-29T01:33:20;10.00;99.90
75262;DHT22;63859;51.064;4.580;2024-03-29T01:35:46;10.00;99.90
75262;DHT22;63859;51.064;4.580;2024-03-29T01:38:12;10.00;99.90
75262;DHT22;63859;51.064;4.580;2024-03-29T01:40:38;10.10;99.90
75262;DHT22;63859;51.064;4.580;2024-03-29T01:43:04;10.10;99.90
75262;DHT22;63859;51.064;4.580;2024-03-29T01:47:56;10.10;99.90
75262;DHT22;63859;51.064;4.580;2024-03-29T01:50:22;10.20;99.90
75262;DHT22;63859;51.064;4.580;2024-03-29T01:52:49;10.20;99.90
75262;DHT22;63859;51.064;4.580;2024-03-29T01:55:15;10.20;99.90
75262;DHT22;63859;51.064;4.580;2024-03-29T01:57:41;10.30;99.90
75262;DHT22;63859;51.064;4.580;2024-03-29T02:00:08;10.30;99.90
75262;DHT22;63859;51.064;4.580;2024-03-29T02:02:34;10.30;99.90
75262;DHT22;63859;51.064;4.580;2024-03-29T02:04:59;10.20;99.90
75262;DHT22;63859;51.064;4.580;2024-03-29T02:07:26;10.20;99.90
75262;DHT22;63859;51.064;4.580;2024-03-29T02:09:53;10.20;99.90
75262;DHT22;63859;51.064;4.580;2024-03-29T02:12:19;10.20;99.90
75262;DHT22;63859;51.064;4.580;2024-03-29T02:14:44;10.10;99.90
75262;DHT22;63859;51.064;4.580;2024-03-29T02:17:10;10.10;99.90
75262;DHT22;63859;51.064;4.580;2024-03-29T02:19:35;10.10;99.90
75262;DHT22;63859;51.064;4.580;2024-03-29T02:24:31;10.00;99.90
75262;DHT22;63859;51.064;4.580;2024-03-29T02:26:57;10.00;99.90
75262;DHT22;63859;51.064;4.580;2024-03-29T02:29:24;10.00;99.90
75262;DHT22;63859;51.064;4.580;2024-03-29T02:31:50;9.90;99.90
75262;DHT22;63859;51.064;4.580;2024-03-29T02:34:15;9.90;99.90
75262;DHT22;63859;51.064;4.580;2024-03-29T02:36:42;9.90;99.90
75262;DHT22;63859;51.064;4.580;2024-03-29T02:39:09;9.90;99.90
75262;DHT22;63859;51.064;4.580;2024-03-29T02:41:35;9.90;99.90
75262;DHT22;63859;51.064;4.580;2024-03-29T02:44:01;9.80;99.90
75262;DHT22;63859;51.064;4.580;2024-03-29T02:46:27;9.80;99.90
75262;DHT22;63859;51.064;4.580;2024-03-29T02:48:53;9.70;99.90
75262;DHT22;63859;51.064;4.580;2024-03-29T02:51:18;9.70;99.90
75262;DHT22;63859;51.064;4.580;2024-03-29T02:53:44;9.70;99.90
75262;DHT22;63859;51.064;4.580;2024-03-29T02:56:10;9.70;99.90
75262;DHT22;63859;51.064;4.580;2024-03-29T02:58:36;9.60;99.90
75262;DHT22;63859;51.064;4.580;2024-03-29T03:06:03;9.50;99.90
75262;DHT22;63859;51.064;4.580;2024-03-29T03:08:29;9.40;99.90
75262;DHT22;63859;51.064;4.580;2024-03-29T03:11:13;9.40;99.90
75262;DHT22;63859;51.064;4.580;2024-03-29T03:13:39;9.30;99.90
75262;DHT22;63859;51.064;4.580;2024-03-29T03:16:05;9.30;99.90
75262;DHT22;63859;51.064;4.580;2024-03-29T03:18:31;9.20;99.90
75262;DHT22;63859;51.064;4.580;2024-03-29T03:20:57;9.10;99.90
75262;DHT22;63859;51.064;4.580;2024-03-29T03:23:24;9.10;99.90
75262;DHT22;63859;51.064;4.580;2024-03-29T03:25:56;9.10;99.90
75262;DHT22;63859;51.064;4.580;2024-03-29T03:28:22;9.00;99.90
75262;DHT22;63859;51.064;4.580;2024-03-29T03:30:49;9.00;99.90
75262;DHT22;63859;51.064;4.580;2024-03-29T03:33:15;8.90;99.90
75262;DHT22;63859;51.064;4.580;2024-03-29T03:35:42;8.80;99.90
75262;DHT22;63859;51.064;4.580;2024-03-29T03:38:08;8.70;99.90
75262;DHT22;63859;51.064;4.580;2024-03-29T03:40:37;8.70;99.90
75262;DHT22;63859;51.064;4.580;2024-03-29T03:43:03;8.60;99.90
75262;DHT22;63859;51.064;4.580;2024-03-29T03:45:37;8.50;99.90
75262;DHT22;63859;51.064;4.580;2024-03-29T03:48:04;8.50;99.90
75262;DHT22;63859;51.064;4.580;2024-03-29T03:50:30;8.50;99.90
75262;DHT22;63859;51.064;4.580;2024-03-29T03:52:56;8.40;99.90
75262;DHT22;63859;51.064;4.580;2024-03-29T03:55:22;8.40;99.90
75262;DHT22;63859;51.064;4.580;2024-03-29T03:57:48;8.30;99.90
75262;DHT22;63859;51.064;4.580;2024-03-29T04:00:14;8.30;99.90
75262;DHT22;63859;51.064;4.580;2024-03-29T04:02:39;8.30;99.90
75262;DHT22;63859;51.064;4.580;2024-03-29T04:07:32;8.30;99.90
75262;DHT22;63859;51.064;4.580;2024-03-29T04:09:58;8.20;99.90
75262;DHT22;63859;51.064;4.580;2024-03-29T04:12:24;8.20;99.90
75262;DHT22;63859;51.064;4.580;2024-03-29T04:14:49;8.20;99.90
75262;DHT22;63859;51.064;4.580;2024-03-29T04:17:15;8.20;99.90
75262;DHT22;63859;51.064;4.580;2024-03-29T04:19:40;8.20;99.90
75262;DHT22;63859;51.064;4.580;2024-03-29T04:22:06;8.20;99.90
75262;DHT22;63859;51.064;4.580;2024-03-29T04:24:32;8.10;99.90
75262;DHT22;63859;51.064;4.580;2024-03-29T04:26:57;8.10;99.90
75262;DHT22;63859;51.064;4.580;2024-03-29T04:29:23;8.10;99.90
75262;DHT22;63859;51.064;4.580;2024-03-29T04:31:49;8.10;99.90
75262;DHT22;63859;51.064;4.580;2024-03-29T04:36:41;8.10;99.90
75262;DHT22;63859;51.064;4.580;2024-03-29T04:39:06;8.10;99.90
75262;DHT22;63859;51.064;4.580;2024-03-29T04:41:32;8.00;99.90
75262;DHT22;63859;51.064;4.580;2024-03-29T04:44:03;8.00;99.90
75262;DHT22;63859;51.064;4.580;2024-03-29T04:46:30;7.90;99.90
75262;DHT22;63859;51.064;4.580;2024-03-29T04:48:57;7.90;99.90
75262;DHT22;63859;51.064;4.580;2024-03-29T04:51:23;7.80;99.90
75262;DHT22;63859;51.064;4.580;2024-03-29T04:53:48;7.80;99.90
75262;DHT22;63859;51.064;4.580;2024-03-29T04:56:14;7.80;99.90
75262;DHT22;63859;51.064;4.580;2024-03-29T04:58:40;7.80;99.90
75262;DHT22;63859;51.064;4.580;2024-03-29T05:01:05;7.80;99.90
75262;DHT22;63859;51.064;4.580;2024-03-29T05:03:32;7.80;99.90
75262;DHT22;63859;51.064;4.580;2024-03-29T05:05:58;7.80;99.90
75262;DHT22;63859;51.064;4.580;2024-03-29T05:08:24;7.80;99.90
75262;DHT22;63859;51.064;4.580;2024-03-29T05:10:50;7.80;99.90
75262;DHT22;63859;51.064;4.580;2024-03-29T05:13:17;7.80;99.90
75262;DHT22;63859;51.064;4.580;2024-03-29T05:15:43;7.80;99.90
75262;DHT22;63859;51.064;4.580;2024-03-29T05:18:08;7.80;99.90
75262;DHT22;63859;51.064;4.580;2024-03-29T05:20:34;7.80;99.90
75262;DHT22;63859;51.064;4.580;2024-03-29T05:23:00;7.80;99.90
75262;DHT22;63859;51.064;4.580;2024-03-29T05:25:26;7.80;99.90
75262;DHT22;63859;51.064;4.580;2024-03-29T05:27:52;7.70;99.90
75262;DHT22;63859;51.064;4.580;2024-03-29T05:30:18;7.80;99.90
75262;DHT22;63859;51.064;4.580;2024-03-29T05:32:44;7.80;99.90
75262;DHT22;63859;51.064;4.580;2024-03-29T05:35:09;7.80;99.90
75262;DHT22;63859;51.064;4.580;2024-03-29T05:37:36;7.80;99.90
75262;DHT22;63859;51.064;4.580;2024-03-29T05:40:02;7.80;99.90
75262;DHT22;63859;51.064;4.580;2024-03-29T05:42:33;7.90;99.90
75262;DHT22;63859;51.064;4.580;2024-03-29T05:45:01;7.80;99.90
75262;DHT22;63859;51.064;4.580;2024-03-29T05:47:27;7.80;99.90
75262;DHT22;63859;51.064;4.580;2024-03-29T05:52:20;7.90;99.90
75262;DHT22;63859;51.064;4.580;2024-03-29T05:54:48;7.80;99.90
75262;DHT22;63859;51.064;4.580;2024-03-29T05:57:14;7.80;99.90
75262;DHT22;63859;51.064;4.580;2024-03-29T05:59:40;7.80;99.90
75262;DHT22;63859;51.064;4.580;2024-03-29T06:02:05;7.80;99.90
75262;DHT22;63859;51.064;4.580;2024-03-29T06:04:31;7.80;99.90
75262;DHT22;63859;51.064;4.580;2024-03-29T06:07:04;7.80;99.90
75262;DHT22;63859;51.064;4.580;2024-03-29T06:09:30;7.80;99.90
75262;DHT22;63859;51.064;4.580;2024-03-29T06:11:58;7.80;99.90
75262;DHT22;63859;51.064;4.580;2024-03-29T06:14:24;7.80;99.90
75262;DHT22;63859;51.064;4.580;2024-03-29T06:17:09;7.80;99.90
75262;DHT22;63859;51.064;4.580;2024-03-29T06:19:51;7.80;99.90
75262;DHT22;63859;51.064;4.580;2024-03-29T06:22:20;7.80;99.90
75262;DHT22;63859;51.064;4.580;2024-03-29T06:27:13;7.80;99.90
75262;DHT22;63859;51.064;4.580;2024-03-29T06:29:43;7.80;99.90
75262;DHT22;63859;51.064;4.580;2024-03-29T06:32:09;7.90;99.90
75262;DHT22;63859;51.064;4.580;2024-03-29T06:34:35;7.90;99.90
75262;DHT22;63859;51.064;4.580;2024-03-29T06:37:02;7.90;99.90
75262;DHT22;63859;51.064;4.580;2024-03-29T06:39:27;7.90;99.90
75262;DHT22;63859;51.064;4.580;2024-03-29T06:41:53;7.90;99.90
75262;DHT22;63859;51.064;4.580;2024-03-29T06:44:19;7.90;99.90
75262;DHT22;63859;51.064;4.580;2024-03-29T06:46:46;8.00;99.90
75262;DHT22;63859;51.064;4.580;2024-03-29T06:49:12;8.00;99.90
75262;DHT22;63859;51.064;4.580;2024-03-29T06:54:06;8.20;99.90
75262;DHT22;63859;51.064;4.580;2024-03-29T06:56:31;8.20;99.90
75262;DHT22;63859;51.064;4.580;2024-03-29T06:58:57;8.20;99.90
75262;DHT22;63859;51.064;4.580;2024-03-29T07:01:23;8.30;99.90
75262;DHT22;63859;51.064;4.580;2024-03-29T07:03:49;8.30;99.90
75262;DHT22;63859;51.064;4.580;2024-03-29T07:06:15;8.30;99.90
75262;DHT22;63859;51.064;4.580;2024-03-29T07:08:40;8.30;99.90
75262;DHT22;63859;51.064;4.580;2024-03-29T07:11:06;8.40;99.90
75262;DHT22;63859;51.064;4.580;2024-03-29T07:13:32;8.40;99.90
75262;DHT22;63859;51.064;4.580;2024-03-29T07:16:01;8.40;99.90
75262;DHT22;63859;51.064;4.580;2024-03-29T07:18:26;8.40;99.90
75262;DHT22;63859;51.064;4.580;2024-03-29T07:20:52;8.40;99.90
75262;DHT22;63859;51.064;4.580;2024-03-29T07:23:18;8.40;99.90
75262;DHT22;63859;51.064;4.580;2024-03-29T07:26:04;8.40;99.90
75262;DHT22;63859;51.064;4.580;2024-03-29T07:28:31;8.50;99.90
75262;DHT22;63859;51.064;4.580;2024-03-29T07:30:57;8.50;99.90
75262;DHT22;63859;51.064;4.580;2024-03-29T07:33:24;8.50;99.90
75262;DHT22;63859;51.064;4.580;2024-03-29T07:38:21;8.50;99.90
75262;DHT22;63859;51.064;4.580;2024-03-29T07:40:50;8.50;99.90
75262;DHT22;63859;51.064;4.580;2024-03-29T07:43:20;8.50;99.90
75262;DHT22;63859;51.064;4.580;2024-03-29T07:45:46;8.60;99.90
75262;DHT22;63859;51.064;4.580;2024-03-29T07:48:16;8.60;99.90
75262;DHT22;63859;51.064;4.580;2024-03-29T07:50:43;8.60;99.90
75262;DHT22;63859;51.064;4.580;2024-03-29T07:53:09;8.70;99.90
75262;DHT22;63859;51.064;4.580;2024-03-29T07:55:37;8.80;99.90
75262;DHT22;63859;51.064;4.580;2024-03-29T08:00:32;9.00;99.90
75262;DHT22;63859;51.064;4.580;2024-03-29T08:02:58;9.00;99.90
75262;DHT22;63859;51.064;4.580;2024-03-29T08:05:24;9.10;99.90
75262;DHT22;63859;51.064;4.580;2024-03-29T08:07:50;9.20;99.90
75262;DHT22;63859;51.064;4.580;2024-03-29T08:10:16;9.30;99.90
75262;DHT22;63859;51.064;4.580;2024-03-29T08:15:08;9.40;99.90
75262;DHT22;63859;51.064;4.580;2024-03-29T08:17:34;9.50;99.90
75262;DHT22;63859;51.064;4.580;2024-03-29T08:20:00;9.50;99.90
75262;DHT22;63859;51.064;4.580;2024-03-29T08:22:25;9.50;99.90
75262;DHT22;63859;51.064;4.580;2024-03-29T08:24:51;9.50;99.90
75262;DHT22;63859;51.064;4.580;2024-03-29T08:27:17;9.60;99.90
75262;DHT22;63859;51.064;4.580;2024-03-29T08:29:43;9.60;99.90
75262;DHT22;63859;51.064;4.580;2024-03-29T08:32:09;9.70;99.90
75262;DHT22;63859;51.064;4.580;2024-03-29T08:34:36;9.80;99.90
75262;DHT22;63859;51.064;4.580;2024-03-29T08:37:02;9.90;99.90
75262;DHT22;63859;51.064;4.580;2024-03-29T08:39:31;9.90;99.90
75262;DHT22;63859;51.064;4.580;2024-03-29T08:41:58;9.90;99.90
75262;DHT22;63859;51.064;4.580;2024-03-29T08:44:24;10.00;99.90
75262;DHT22;63859;51.064;4.580;2024-03-29T08:46:50;10.20;99.90
75262;DHT22;63859;51.064;4.580;2024-03-29T08:49:16;10.20;99.90
75262;DHT22;63859;51.064;4.580;2024-03-29T08:51:42;10.30;99.90
75262;DHT22;63859;51.064;4.580;2024-03-29T08:54:08;10.30;99.90
75262;DHT22;63859;51.064;4.580;2024-03-29T08:56:33;10.40;99.90
75262;DHT22;63859;51.064;4.580;2024-03-29T09:01:38;10.40;99.90
75262;DHT22;63859;51.064;4.580;2024-03-29T09:04:04;10.40;99.90
75262;DHT22;63859;51.064;4.580;2024-03-29T09:06:32;10.50;99.90
75262;DHT22;63859;51.064;4.580;2024-03-29T09:08:58;10.50;99.90
75262;DHT22;63859;51.064;4.580;2024-03-29T09:11:24;10.60;99.90
75262;DHT22;63859;51.064;4.580;2024-03-29T09:13:50;10.80;99.90
75262;DHT22;63859;51.064;4.580;2024-03-29T09:16:16;10.90;99.90
75262;DHT22;63859;51.064;4.580;2024-03-29T09:18:41;10.90;99.90
75262;DHT22;63859;51.064;4.580;2024-03-29T09:21:07;11.10;99.90
75262;DHT22;63859;51.064;4.580;2024-03-29T09:23:34;11.10;99.90
75262;DHT22;63859;51.064;4.580;2024-03-29T09:26:00;11.30;99.90
75262;DHT22;63859;51.064;4.580;2024-03-29T09:28:29;11.40;99.90
75262;DHT22;63859;51.064;4.580;2024-03-29T09:30:57;11.50;99.90
75262;DHT22;63859;51.064;4.580;2024-03-29T09:33:24;11.60;99.90
75262;DHT22;63859;51.064;4.580;2024-03-29T09:35:50;11.70;99.90
75262;DHT22;63859;51.064;4.580;2024-03-29T09:38:16;11.70;99.90
75262;DHT22;63859;51.064;4.580;2024-03-29T09:40:42;11.70;99.90
75262;DHT22;63859;51.064;4.580;2024-03-29T09:43:10;11.80;99.90
75262;DHT22;63859;51.064;4.580;2024-03-29T09:45:38;11.90;99.90
75262;DHT22;63859;51.064;4.580;2024-03-29T09:48:05;11.90;99.90
75262;DHT22;63859;51.064;4.580;2024-03-29T09:52:58;11.90;99.90
75262;DHT22;63859;51.064;4.580;2024-03-29T09:55:24;11.90;99.90
75262;DHT22;63859;51.064;4.580;2024-03-29T09:57:50;12.10;99.90
75262;DHT22;63859;51.064;4.580;2024-03-29T10:00:17;12.30;99.90
75262;DHT22;63859;51.064;4.580;2024-03-29T10:02:43;12.40;99.90
75262;DHT22;63859;51.064;4.580;2024-03-29T10:05:11;12.30;99.90
75262;DHT22;63859;51.064;4.580;2024-03-29T10:10:05;12.40;99.90
75262;DHT22;63859;51.064;4.580;2024-03-29T10:12:31;12.50;99.90
75262;DHT22;63859;51.064;4.580;2024-03-29T10:17:47;12.60;99.90
75262;DHT22;63859;51.064;4.580;2024-03-29T10:20:16;12.70;99.90
75262;DHT22;63859;51.064;4.580;2024-03-29T10:22:43;12.70;99.90
75262;DHT22;63859;51.064;4.580;2024-03-29T10:25:10;12.80;99.90
75262;DHT22;63859;51.064;4.580;2024-03-29T10:27:36;12.70;99.90
75262;DHT22;63859;51.064;4.580;2024-03-29T10:30:01;12.80;99.90
75262;DHT22;63859;51.064;4.580;2024-03-29T10:32:29;12.90;99.90
75262;DHT22;63859;51.064;4.580;2024-03-29T10:34:55;12.90;99.90
75262;DHT22;63859;51.064;4.580;2024-03-29T10:37:22;13.00;99.90
75262;DHT22;63859;51.064;4.580;2024-03-29T10:39:52;13.10;99.90
75262;DHT22;63859;51.064;4.580;2024-03-29T10:42:20;13.20;99.90
75262;DHT22;63859;51.064;4.580;2024-03-29T10:44:48;13.20;99.90
75262;DHT22;63859;51.064;4.580;2024-03-29T10:47:18;13.20;99.90
75262;DHT22;63859;51.064;4.580;2024-03-29T10:49:49;13.20;99.90
75262;DHT22;63859;51.064;4.580;2024-03-29T10:52:17;13.10;99.90
75262;DHT22;63859;51.064;4.580;2024-03-29T10:54:47;13.00;99.90
75262;DHT22;63859;51.064;4.580;2024-03-29T10:57:33;13.00;99.90
75262;DHT22;63859;51.064;4.580;2024-03-29T11:00:13;13.20;99.90
75262;DHT22;63859;51.064;4.580;2024-03-29T11:05:18;13.50;99.90
75262;DHT22;63859;51.064;4.580;2024-03-29T11:07:44;13.50;99.90
75262;DHT22;63859;51.064;4.580;2024-03-29T11:20:27;14.60;99.90
75262;DHT22;63859;51.064;4.580;2024-03-29T11:25:54;15.00;99.90
75262;DHT22;63859;51.064;4.580;2024-03-29T11:28:38;14.70;99.90
75262;DHT22;63859;51.064;4.580;2024-03-29T11:31:07;14.70;99.90
75262;DHT22;63859;51.064;4.580;2024-03-29T11:36:10;14.50;99.90
75262;DHT22;63859;51.064;4.580;2024-03-29T11:38:37;14.60;99.90
75262;DHT22;63859;51.064;4.580;2024-03-29T11:41:13;15.00;99.90
75262;DHT22;63859;51.064;4.580;2024-03-29T11:43:39;15.60;99.90
75262;DHT22;63859;51.064;4.580;2024-03-29T11:46:10;15.40;99.90
75262;DHT22;63859;51.064;4.580;2024-03-29T11:48:36;15.30;99.90
75262;DHT22;63859;51.064;4.580;2024-03-29T11:51:03;15.30;99.90
75262;DHT22;63859;51.064;4.580;2024-03-29T11:53:30;15.10;99.90
75262;DHT22;63859;51.064;4.580;2024-03-29T11:56:00;15.10;99.90
75262;DHT22;63859;51.064;4.580;2024-03-29T11:58:27;15.00;99.90
75262;DHT22;63859;51.064;4.580;2024-03-29T12:03:21;15.70;99.90
75262;DHT22;63859;51.064;4.580;2024-03-29T12:05:51;15.80;99.90
75262;DHT22;63859;51.064;4.580;2024-03-29T12:08:20;16.20;99.90
75262;DHT22;63859;51.064;4.580;2024-03-29T12:10:46;16.40;99.90
75262;DHT22;63859;51.064;4.580;2024-03-29T12:13:13;16.20;99.90
75262;DHT22;63859;51.064;4.580;2024-03-29T12:15:40;16.10;99.90
75262;DHT22;63859;51.064;4.580;2024-03-29T12:20:33;16.00;99.90
75262;DHT22;63859;51.064;4.580;2024-03-29T12:23:00;16.00;99.90
75262;DHT22;63859;51.064;4.580;2024-03-29T12:25:27;15.80;99.90
75262;DHT22;63859;51.064;4.580;2024-03-29T12:27:54;15.90;99.90
75262;DHT22;63859;51.064;4.580;2024-03-29T12:30:20;16.00;99.90
75262;DHT22;63859;51.064;4.580;2024-03-29T12:32:45;16.10;99.90
75262;DHT22;63859;51.064;4.580;2024-03-29T12:37:50;16.20;99.90
75262;DHT22;63859;51.064;4.580;2024-03-29T12:40:17;16.20;99.90
75262;DHT22;63859;51.064;4.580;2024-03-29T12:42:52;16.30;99.90
75262;DHT22;63859;51.064;4.580;2024-03-29T12:47:46;16.50;99.90
75262;DHT22;63859;51.064;4.580;2024-03-29T12:50:29;16.40;99.90
75262;DHT22;63859;51.064;4.580;2024-03-29T12:52:57;16.40;99.90
75262;DHT22;63859;51.064;4.580;2024-03-29T12:55:23;16.60;99.90
75262;DHT22;63859;51.064;4.580;2024-03-29T12:57:50;16.80;99.90
75262;DHT22;63859;51.064;4.580;2024-03-29T13:00:22;16.70;99.90
75262;DHT22;63859;51.064;4.580;2024-03-29T13:02:48;16.60;99.90
75262;DHT22;63859;51.064;4.580;2024-03-29T13:05:13;16.60;99.90
75262;DHT22;63859;51.064;4.580;2024-03-29T13:07:39;16.70;99.90
75262;DHT22;63859;51.064;4.580;2024-03-29T13:10:05;16.90;99.90
75262;DHT22;63859;51.064;4.580;2024-03-29T13:12:36;16.80;99.90
75262;DHT22;63859;51.064;4.580;2024-03-29T13:15:18;16.60;99.90
75262;DHT22;63859;51.064;4.580;2024-03-29T13:17:45;17.00;99.90
75262;DHT22;63859;51.064;4.580;2024-03-29T13:20:12;17.50;99.90
75262;DHT22;63859;51.064;4.580;2024-03-29T13:22:38;17.30;99.90
75262;DHT22;63859;51.064;4.580;2024-03-29T13:25:04;17.10;99.90
75262;DHT22;63859;51.064;4.580;2024-03-29T13:27:33;17.00;99.90
75262;DHT22;63859;51.064;4.580;2024-03-29T13:29:58;17.00;99.90
75262;DHT22;63859;51.064;4.580;2024-03-29T13:32:24;16.80;99.90
75262;DHT22;63859;51.064;4.580;2024-03-29T13:37:17;16.70;99.90
75262;DHT22;63859;51.064;4.580;2024-03-29T13:42:09;17.40;99.90
75262;DHT22;63859;51.064;4.580;2024-03-29T13:44:35;18.00;99.90
75262;DHT22;63859;51.064;4.580;2024-03-29T13:47:00;18.10;99.90
75262;DHT22;63859;51.064;4.580;2024-03-29T13:49:30;18.20;99.90
75262;DHT22;63859;51.064;4.580;2024-03-29T13:51:57;18.10;99.90
75262;DHT22;63859;51.064;4.580;2024-03-29T13:54:23;18.20;99.90
75262;DHT22;63859;51.064;4.580;2024-03-29T13:56:49;18.40;99.90
75262;DHT22;63859;51.064;4.580;2024-03-29T14:01:41;17.60;99.90
75262;DHT22;63859;51.064;4.580;2024-03-29T14:04:06;17.30;99.90
75262;DHT22;63859;51.064;4.580;2024-03-29T14:06:32;17.20;99.90
75262;DHT22;63859;51.064;4.580;2024-03-29T14:08:58;17.00;99.90
75262;DHT22;63859;51.064;4.580;2024-03-29T14:11:24;16.90;99.90
75262;DHT22;63859;51.064;4.580;2024-03-29T14:13:49;17.00;99.90
75262;DHT22;63859;51.064;4.580;2024-03-29T14:16:22;17.00;99.90
75262;DHT22;63859;51.064;4.580;2024-03-29T14:18:47;16.90;99.90
75262;DHT22;63859;51.064;4.580;2024-03-29T14:21:13;17.30;99.90
75262;DHT22;63859;51.064;4.580;2024-03-29T14:23:39;17.50;99.90
75262;DHT22;63859;51.064;4.580;2024-03-29T14:26:05;17.90;99.90
75262;DHT22;63859;51.064;4.580;2024-03-29T14:28:31;18.30;99.90
75262;DHT22;63859;51.064;4.580;2024-03-29T14:30:57;18.30;99.90
75262;DHT22;63859;51.064;4.580;2024-03-29T14:33:23;18.30;99.90
75262;DHT22;63859;51.064;4.580;2024-03-29T14:35:48;18.50;99.90
75262;DHT22;63859;51.064;4.580;2024-03-29T14:38:15;18.50;99.90
75262;DHT22;63859;51.064;4.580;2024-03-29T14:40:41;18.70;99.90
75262;DHT22;63859;51.064;4.580;2024-03-29T14:43:07;19.20;99.90
75262;DHT22;63859;51.064;4.580;2024-03-29T14:45:33;19.40;99.90
75262;DHT22;63859;51.064;4.580;2024-03-29T14:47:59;19.30;99.90
75262;DHT22;63859;51.064;4.580;2024-03-29T14:50:25;19.00;99.90
75262;DHT22;63859;51.064;4.580;2024-03-29T14:52:51;18.90;99.90
75262;DHT22;63859;51.064;4.580;2024-03-29T14:55:16;18.90;99.90
75262;DHT22;63859;51.064;4.580;2024-03-29T14:57:42;19.00;99.90
75262;DHT22;63859;51.064;4.580;2024-03-29T15:00:11;19.10;99.90
75262;DHT22;63859;51.064;4.580;2024-03-29T15:02:37;19.60;99.90
75262;DHT22;63859;51.064;4.580;2024-03-29T15:05:03;19.90;99.90
75262;DHT22;63859;51.064;4.580;2024-03-29T15:07:31;19.50;99.90
75262;DHT22;63859;51.064;4.580;2024-03-29T15:09:58;19.00;99.90
75262;DHT22;63859;51.064;4.580;2024-03-29T15:12:23;18.50;99.90
75262;DHT22;63859;51.064;4.580;2024-03-29T15:14:49;18.40;99.90
75262;DHT22;63859;51.064;4.580;2024-03-29T15:17:15;18.10;99.90
75262;DHT22;63859;51.064;4.580;2024-03-29T15:19:40;17.90;99.90
75262;DHT22;63859;51.064;4.580;2024-03-29T15:22:06;17.80;99.90
75262;DHT22;63859;51.064;4.580;2024-03-29T15:24:33;17.40;99.90
75262;DHT22;63859;51.064;4.580;2024-03-29T15:29:26;17.00;99.90
75262;DHT22;63859;51.064;4.580;2024-03-29T15:31:51;16.90;99.90
75262;DHT22;63859;51.064;4.580;2024-03-29T15:34:17;16.80;99.90
75262;DHT22;63859;51.064;4.580;2024-03-29T15:36:42;16.60;99.90
75262;DHT22;63859;51.064;4.580;2024-03-29T15:39:09;16.40;99.90
75262;DHT22;63859;51.064;4.580;2024-03-29T15:41:36;16.40;99.90
75262;DHT22;63859;51.064;4.580;2024-03-29T15:44:03;16.40;99.90
75262;DHT22;63859;51.064;4.580;2024-03-29T15:46:30;16.50;99.90
75262;DHT22;63859;51.064;4.580;2024-03-29T15:48:56;16.50;99.90
75262;DHT22;63859;51.064;4.580;2024-03-29T15:51:22;16.50;99.90
75262;DHT22;63859;51.064;4.580;2024-03-29T15:56:15;16.70;99.90
75262;DHT22;63859;51.064;4.580;2024-03-29T15:58:41;16.80;99.90
75262;DHT22;63859;51.064;4.580;2024-03-29T16:01:06;16.80;99.90
75262;DHT22;63859;51.064;4.580;2024-03-29T16:03:34;17.10;99.90
75262;DHT22;63859;51.064;4.580;2024-03-29T16:08:26;17.00;99.90
75262;DHT22;63859;51.064;4.580;2024-03-29T16:13:18;16.90;99.90
75262;DHT22;63859;51.064;4.580;2024-03-29T16:15:45;16.90;99.90
75262;DHT22;63859;51.064;4.580;2024-03-29T16:18:12;16.90;99.90
75262;DHT22;63859;51.064;4.580;2024-03-29T16:20:38;17.10;99.90
75262;DHT22;63859;51.064;4.580;2024-03-29T16:23:04;17.10;99.90
75262;DHT22;63859;51.064;4.580;2024-03-29T16:25:30;16.80;99.90
75262;DHT22;63859;51.064;4.580;2024-03-29T16:27:55;16.60;99.90
75262;DHT22;63859;51.064;4.580;2024-03-29T16:30:21;16.40;99.90
75262;DHT22;63859;51.064;4.580;2024-03-29T16:32:47;16.20;99.90
75262;DHT22;63859;51.064;4.580;2024-03-29T16:35:13;16.00;99.90
75262;DHT22;63859;51.064;4.580;2024-03-29T16:37:39;15.90;99.90
75262;DHT22;63859;51.064;4.580;2024-03-29T16:40:05;15.80;99.90
75262;DHT22;63859;51.064;4.580;2024-03-29T16:42:31;15.70;99.90
75262;DHT22;63859;51.064;4.580;2024-03-29T16:44:57;15.70;99.90
75262;DHT22;63859;51.064;4.580;2024-03-29T16:47:22;15.60;99.90
75262;DHT22;63859;51.064;4.580;2024-03-29T16:49:48;15.60;99.90
75262;DHT22;63859;51.064;4.580;2024-03-29T16:52:14;15.50;99.90
75262;DHT22;63859;51.064;4.580;2024-03-29T16:54:39;15.40;99.90
75262;DHT22;63859;51.064;4.580;2024-03-29T16:57:05;15.40;99.90
75262;DHT22;63859;51.064;4.580;2024-03-29T16:59:31;15.40;99.90
75262;DHT22;63859;51.064;4.580;2024-03-29T17:01:58;15.40;99.90
75262;DHT22;63859;51.064;4.580;2024-03-29T17:04:24;15.30;99.90
75262;DHT22;63859;51.064;4.580;2024-03-29T17:06:50;15.30;99.90
75262;DHT22;63859;51.064;4.580;2024-03-29T17:09:34;15.20;99.90
75262;DHT22;63859;51.064;4.580;2024-03-29T17:12:00;15.20;99.90